Latest Coastal Weather Observations for Hervey Bay

IDQ60701

Issued at 7:05 pm EST Friday 31 October 2014 (issued every 10 minutes, with the page automatically refreshed every 10 minutes)

About coastal observations | Map of coastal stations | Coastal observations for QLD | Marine services | Other Formats
Station Details ID: 040405 Name: HERVEY BAY AIRPORT Lat: -25.32 Lon: 152.88 Height: 12.98 m
Data from the previous 72 hours. | See also: Recent months at Hervey Bay
Date/Time
EST
Temp

°C
Wind Pressure Rain
since 9am
mm
Weather Cloud Vis
km
Sea
Height
m
Swell
Dir
 
Speed
knots
Gust
knots
hPa Trend Height
m
Period
s
Dir
31/07:00pm 23.8 N 9 13 1015.1 - 0.0 - - 10 - - - -
31/06:30pm 23.8 N 10 14 1014.9 - 0.0 - - 10 - - - -
31/06:00pm 24.1 N 10 14 1014.6 - 0.0 - - 10 - - - -
31/05:30pm 24.7 N 11 15 1014.6 - 0.0 - - 10 - - - -
31/05:00pm 24.9 N 12 16 1014.4 - 0.0 - - 10 - - - -
31/04:30pm 25.7 N 12 17 1014.5 - 0.0 - - 10 - - - -
31/04:00pm 25.9 N 12 17 1014.3 - 0.0 - - 10 - - - -
31/03:30pm 26.1 N 13 18 1014.2 - 0.0 - - 10 - - - -
31/03:00pm 27.0 N 12 16 1014.3 - 0.0 - - 10 - - - -
31/02:30pm 27.0 N 13 19 1014.3 - 0.0 - - 10 - - - -
31/02:00pm 26.7 N 13 18 1014.5 - 0.0 - - 10 - - - -
31/01:30pm 27.6 N 11 15 1014.7 - 0.0 - - 10 - - - -
31/01:00pm 27.7 N 9 14 1015.1 - 0.0 - - 10 - - - -
31/12:30pm 28.1 N 10 14 1015.4 - 0.0 - - 10 - - - -
31/12:00pm 27.6 NNW 11 13 1015.8 - 0.0 - - 10 - - - -
31/11:30am 27.7 NNW 10 14 1016.2 - 0.0 - - 10 - - - -
31/11:00am 27.6 N 9 11 1016.5 - 0.0 - Partly cloudy 10 - - - -
31/10:30am 27.4 N 9 13 1016.8 - 0.0 - - 10 - - - -
31/10:00am 26.8 NNE 9 13 1017.2 - 0.0 - Partly cloudy 10 - - - -
31/09:30am 25.9 NNE 10 12 1017.1 - 0.0 - Partly cloudy 10 - - - -
31/09:00am 25.7 N 6 9 1017.1 - 0.0 - Partly cloudy 10 - - - -
31/08:30am 24.9 N 5 7 1017.2 - 0.0 - Cloudy 10 - - - -
31/08:00am 24.9 N 6 9 1017.2 - 0.0 - Partly cloudy 10 - - - -
31/07:30am 24.4 N 6 8 1017.2 - 0.0 - Partly cloudy 10 - - - -
31/07:00am 24.1 N 5 6 1017.1 - 0.0 - Partly cloudy 10 - - - -
31/06:30am 22.2 CALM 0 0 1016.7 - 0.0 - - 10 - - - -
31/06:00am 20.8 CALM 0 0 1016.2 - 0.0 - Mostly clear 10 - - - -
31/05:30am 19.7 CALM 0 0 1016.0 - 0.0 - Partly cloudy 10 - - - -
31/05:00am 19.8 N 2 4 1015.7 - 0.0 - Partly cloudy 10 - - - -
31/04:30am 19.7 CALM 0 0 1015.6 - 0.0 - Partly cloudy 10 - - - -
31/04:00am 19.7 N 3 4 1015.2 - 0.0 - Partly cloudy 10 - - - -
31/03:30am 20.7 N 3 5 1015.0 - 0.0 - - 10 - - - -
31/03:00am 21.7 N 4 6 1014.8 - 0.0 - - 10 - - - -
31/02:30am 22.1 N 4 5 1014.9 - 0.0 - - 10 - - - -
31/02:00am 22.2 NNW 5 7 1014.9 - 0.0 - - 10 - - - -
31/01:30am 23.0 NNW 7 8 1015.3 - 0.0 - Partly cloudy 10 - - - -
31/01:00am 23.1 N 6 8 1015.3 - 0.0 - Partly cloudy 10 - - - -
31/12:30am 23.1 N 4 5 1015.4 - 0.0 - Partly cloudy 10 - - - -
31/12:00am 23.1 N 4 6 1015.5 - 0.0 - Mostly cloudy 10 - - - -
 
Date/Time
EST
Temp

°C
Wind Pressure Rain
since 9am
mm
Weather Cloud Vis
km
Sea
Height
m
Swell
Dir
 
Speed
knots
Gust
knots
hPa Trend Height
m
Period
s
Dir
30/11:30pm 23.2 N 6 8 1015.3 - 0.0 - Partly cloudy 10 - - - -
30/11:00pm 23.3 N 5 8 1015.9 - 0.0 - Partly cloudy 10 - - - -
30/10:30pm 23.6 N 5 7 1016.3 - 0.0 - Cloudy 10 - - - -
30/10:00pm 23.5 NE 6 8 1016.3 - 0.0 - Partly cloudy 10 - - - -
30/09:30pm 23.5 NE 6 8 1016.1 - 0.0 - Partly cloudy 10 - - - -
30/09:00pm 23.6 NE 6 8 1016.1 - 0.0 - - 10 - - - -
30/08:30pm 23.7 NE 7 10 1015.9 - 0.0 - Partly cloudy 10 - - - -
30/08:00pm 24.0 NE 7 9 1015.7 - 0.0 - Partly cloudy 10 - - - -
30/07:30pm 23.9 N 5 8 1015.5 - 0.0 - Partly cloudy 10 - - - -
30/07:00pm 23.9 N 5 8 1014.9 - 0.0 - - 10 - - - -
30/06:30pm 24.0 N 6 7 1014.4 - 0.0 - - 10 - - - -
30/06:00pm 24.3 N 7 9 1014.1 - 0.0 - Mostly clear 10 - - - -
30/05:30pm 24.9 N 7 10 1013.7 - 0.0 - - 10 - - - -
30/05:00pm 25.1 N 9 11 1013.5 - 0.0 - - 10 - - - -
30/04:30pm 26.1 N 10 13 1013.5 - 0.0 - - 10 - - - -
30/04:00pm 26.5 NNE 10 15 1013.3 - 0.0 - - 10 - - - -
30/03:30pm 27.2 NNE 11 15 1013.3 - 0.0 - - 10 - - - -
30/03:00pm 27.5 NNE 13 17 1013.5 - 0.0 - Mostly clear 10 - - - -
30/02:30pm 27.7 NNE 11 15 1013.6 - 0.0 - Partly cloudy 10 - - - -
30/02:00pm 27.6 NNE 10 16 1013.9 - 0.0 - - 10 - - - -
30/01:30pm 28.0 ENE 9 14 1014.1 - 0.0 - - 10 - - - -
30/01:00pm 28.1 NE 9 12 1014.3 - 0.0 - - 10 - - - -
30/12:30pm 28.4 E 8 11 1014.6 - 0.0 - - 10 - - - -
30/12:00pm 27.9 ENE 9 12 1015.2 - 0.0 - Mostly clear 10 - - - -
30/11:30am 27.8 N 9 15 1015.7 - 0.0 - Partly cloudy 10 - - - -
30/11:00am 27.8 SE 6 10 1016.2 - 0.0 - Partly cloudy 10 - - - -
30/10:30am 28.0 E 7 12 1016.6 - 0.0 - Partly cloudy 10 - - - -
30/10:00am 27.9 E 9 13 1016.8 - 0.0 - Partly cloudy 10 - - - -
30/09:30am 26.8 E 6 11 1016.9 - 0.0 - - 10 - - - -
30/09:00am 27.3 ESE 7 9 1017.1 - 0.0 - Cloudy 10 - - - -
30/08:30am 26.4 SSE 7 12 1017.2 - 0.0 - Partly cloudy 10 - - - -
30/08:00am 26.5 SE 6 9 1017.2 - 0.0 - Partly cloudy 10 - - - -
30/07:30am 24.6 S 5 9 1016.9 - 0.0 - Partly cloudy 10 - - - -
30/07:00am 22.3 SSW 6 7 1017.1 - 0.0 - Partly cloudy 10 - - - -
30/06:30am 21.4 SSW 5 6 1016.9 - 0.0 - Partly cloudy 10 - - - -
30/06:00am 20.4 WSW 4 5 1016.6 - 0.0 - Mostly clear 8 - - - -
30/05:30am 19.6 SW 3 4 1016.2 - 0.0 - Partly cloudy 6 - - - -
30/05:27am 19.6 SW 3 4 1016.1 - 0.0 - Partly cloudy 6 - - - -
30/05:19am 19.6 SW 3 4 1016.0 - 0.0 - Partly cloudy 6 - - - -
30/05:00am 19.4 SW 2 3 1015.7 - 0.0 - Partly cloudy 4 - - - -
30/04:35am 19.7 SW 4 5 1015.4 - 0.0 - Partly cloudy 4 - - - -
30/04:30am 19.7 SW 4 5 1015.3 - 0.0 - Partly cloudy 5 - - - -
30/04:25am 19.7 SW 5 5 1015.3 - 0.0 - Partly cloudy 5 - - - -
30/04:00am 19.4 SW 4 5 1015.1 - 0.0 - - 8 - - - -
30/03:30am 19.1 SW 3 4 1014.9 - 0.0 - Partly cloudy 9 - - - -
30/03:00am 20.0 SSW 3 4 1014.9 - 0.0 - Partly cloudy 8 - - - -
30/02:30am 20.0 SW 1 3 1015.0 - 0.0 - Cloudy 10 - - - -
30/02:00am 19.7 SSW 3 4 1015.1 - 0.0 - Partly cloudy 8 - - - -
30/01:30am 21.1 S 4 5 1015.2 - 0.0 - Partly cloudy 10 - - - -
30/01:00am 21.4 SSE 4 5 1015.3 - 0.0 - Partly cloudy 10 - - - -
30/12:30am 22.0 SSE 4 6 1015.3 - 0.0 - Partly cloudy 10 - - - -
30/12:22am 22.0 SSE 4 6 1015.4 - 0.0 - Partly cloudy 10 - - - -
30/12:09am 22.1 SSE 4 6 1015.5 - 0.0 - Partly cloudy 10 - - - -
30/12:04am 21.9 SSE 4 5 1015.6 - 0.0 - Partly cloudy 10 - - - -
30/12:00am 22.0 S 4 5 1015.6 - 0.0 - Cloudy 10 - - - -
 
Date/Time
EST
Temp

°C
Wind Pressure Rain
since 9am
mm
Weather Cloud Vis
km
Sea
Height
m
Swell
Dir
 
Speed
knots
Gust
knots
hPa Trend Height
m
Period
s
Dir
29/11:31pm 21.6 S 4 4 1015.8 - 0.0 - Partly cloudy 10 - - - -
29/11:30pm 21.7 S 4 5 1015.8 - 0.0 - Partly cloudy 10 - - - -
29/11:00pm 20.9 S 4 5 1016.0 - 0.0 - Partly cloudy 10 - - - -
29/10:30pm 20.6 S 4 4 1016.1 - 0.0 - Partly cloudy 10 - - - -
29/10:00pm 20.8 S 3 4 1016.1 - 0.0 - - 10 - - - -
29/09:30pm 21.6 S 4 5 1016.1 - 0.0 - - 10 - - - -
29/09:00pm 22.1 S 4 5 1016.1 - 0.0 - - 10 - - - -
29/08:30pm 22.8 S 4 6 1016.0 - 0.0 - Partly cloudy 10 - - - -
29/08:00pm 23.3 SE 5 8 1015.8 - 0.0 - Partly cloudy 10 - - - -
29/07:30pm 23.6 ESE 6 8 1015.5 - 0.0 - Partly cloudy 10 - - - -
29/07:00pm 23.6 SE 6 9 1015.1 - 0.0 - - 10 - - - -
29/06:30pm 23.9 SE 8 11 1014.8 - 0.0 - Partly cloudy 10 - - - -
29/06:00pm 24.4 SE 8 11 1014.5 - 0.0 - Mostly cloudy 10 - - - -
29/05:30pm 24.8 SE 7 11 1014.3 - 0.0 - Partly cloudy 10 - - - -
29/05:00pm 25.3 ESE 9 14 1013.9 - 0.0 - Partly cloudy 10 - - - -
29/04:30pm 26.7 ESE 10 15 1013.4 - 0.0 - Partly cloudy 10 - - - -
29/04:00pm 26.7 ESE 13 17 1013.0 - 0.0 - - 10 - - - -
29/03:30pm 27.1 ESE 15 18 1012.7 - 0.0 - - 10 - - - -
29/03:00pm 27.8 E 15 19 1012.5 - 0.0 - - 10 - - - -
29/02:30pm 27.7 ENE 10 14 1012.6 - 0.0 - - 10 - - - -
29/02:00pm 28.0 NE 9 13 1012.8 - 0.0 - - 10 - - - -
29/01:30pm 28.0 NE 10 13 1012.9 - 0.0 - - 10 - - - -
29/01:00pm 27.9 NNE 10 15 1012.9 - 0.0 - - 10 - - - -
29/12:30pm 28.2 NE 9 12 1013.0 - 0.0 - - 10 - - - -
29/12:00pm 28.6 ENE 7 11 1013.0 - 0.0 - - 10 - - - -
29/11:30am 28.5 NE 8 12 1013.2 - 0.0 - - 10 - - - -
29/11:00am 28.3 NNE 7 11 1013.5 - 0.0 - - 10 - - - -
29/10:30am 28.0 NNE 7 11 1013.9 - 0.0 - - 10 - - - -
29/10:00am 27.3 NNE 8 11 1014.2 - 0.0 - - 10 - - - -
29/09:30am 26.5 NNE 7 11 1014.4 - 0.0 - Partly cloudy 10 - - - -
29/09:00am 26.0 N 7 11 1014.2 - 0.0 - - 10 - - - -
29/08:30am 25.7 N 7 10 1014.0 - 0.0 - - 10 - - - -
29/08:00am 26.1 N 6 8 1013.9 - 0.0 - - 10 - - - -
29/07:30am 24.8 N 7 10 1013.6 - 0.0 - - 10 - - - -
29/07:00am 24.3 N 8 10 1013.2 - 0.0 - - 10 - - - -
29/06:30am 24.0 N 7 10 1013.0 - 0.0 - - 10 - - - -
29/06:00am 22.7 NNE 6 8 1012.8 - 0.0 - - 10 - - - -
29/05:30am 20.7 N 4 5 1012.6 - 0.0 - - 10 - - - -
29/05:00am 20.0 N 6 9 1012.4 - 0.0 - - 10 - - - -
29/04:30am 17.7 CALM 0 4 1012.5 - 0.0 - - 10 - - - -
29/04:00am 18.0 CALM 0 0 1012.1 - 0.0 - - 10 - - - -
29/03:30am 18.9 CALM 0 0 1011.9 - 0.0 - - 10 - - - -
29/03:00am 18.8 CALM 0 0 1011.5 - 0.0 - - 10 - - - -
29/02:30am 19.3 CALM 0 0 1011.2 - 0.0 - - 10 - - - -
29/02:00am 19.7 ESE 2 4 1011.1 - 0.0 - - 10 - - - -
29/01:30am 20.9 S 3 4 1010.9 - 0.0 - - 10 - - - -
29/01:00am 22.1 S 4 5 1011.0 - 0.0 - - 10 - - - -
29/12:30am 22.8 W 5 7 1011.2 - 0.0 - - 10 - - - -
29/12:00am 23.3 NW 13 21 1011.5 - 0.0 - - 10 - - - -
 
Date/Time
EST
Temp

°C
Wind Pressure Rain
since 9am
mm
Weather Cloud Vis
km
Sea
Height
m
Swell
Dir
 
Speed
knots
Gust
knots
hPa Trend Height
m
Period
s
Dir
28/11:30pm 23.6 NW 12 17 1011.8 - 0.0 - - 10 - - - -
28/11:00pm 23.7 NW 17 24 1011.9 - 0.0 - - 10 - - - -
28/10:30pm 24.0 NW 17 24 1012.4 - 0.0 - - 10 - - - -
28/10:00pm 24.0 NW 11 15 1012.2 - 0.0 - - 10 - - - -
28/09:30pm 23.4 N 7 11 1011.7 - 0.0 - - 10 - - - -
28/09:00pm 23.9 N 7 12 1011.7 - 0.0 - Mostly clear 10 - - - -
28/08:30pm 23.7 W 9 12 1010.9 - 0.0 - Partly cloudy 10 - - - -
28/08:17pm 23.4 NNE 15 28 1009.9 - 0.0 - Partly cloudy 10 - - - -
28/08:00pm 23.3 N 12 20 1011.0 - 0.0 - Partly cloudy 10 - - - -
28/07:32pm 23.4 NNW 16 26 1011.4 - 0.0 - Partly cloudy 10 - - - -
28/07:30pm 23.4 N 15 23 1011.4 - 0.0 - Partly cloudy 10 - - - -
28/07:12pm 23.6 N 15 26 1011.2 - 0.0 - Partly cloudy 10 - - - -
28/07:10pm 23.6 N 15 21 1011.2 - 0.0 - Partly cloudy 10 - - - -

Other Formats:

Comma delimited format used in spreadsheet applications
http://www.bom.gov.au/fwo/IDQ60701/IDQ60701.95565.axf

JavaScript Object Notation format (JSON) in row-major order
http://www.bom.gov.au/fwo/IDQ60701/IDQ60701.95565.json